This is the latest recevied weather packets stored in our database for station/object KA2FNK. If no packets are shown the sender has not sent any weather packets the latest 10 day(s).
| Time | Temp. | Humidity | Pressure | Rain* | Wind** | Luminosity | Snow |
|---|---|---|---|---|---|---|---|
| 1777974768 | 9.44° C | 86% | 1009.2 hPa | 0 mm | - | - | - |
| 1777974467 | 9.44° C | 86% | 1009 hPa | 0 mm | - | - | - |
| 1777974166 | 10° C | 85% | 1008.7 hPa | 0 mm | - | - | - |
| 1777973865 | 9.44° C | 84% | 1008.7 hPa | 0 mm | - | - | - |
| 1777973564 | 9.44° C | 84% | 1008.6 hPa | 0 mm | - | - | - |
| 1777973263 | 9.44° C | 85% | 1008.5 hPa | 0 mm | - | - | - |
| 1777972962 | 9.44° C | 84% | 1008.4 hPa | 0 mm | - | - | - |
| 1777972661 | 9.44° C | 85% | 1008.3 hPa | 0.25 mm | - | - | - |
| 1777972360 | 9.44° C | 85% | 1008.2 hPa | 0.25 mm | - | - | - |
| 1777972059 | 9.44° C | 86% | 1007.7 hPa | 0.76 mm | - | - | - |
| 1777971758 | 9.44° C | 85% | 1007.5 hPa | 1.52 mm | - | - | - |
| 1777971457 | 9.44° C | 85% | 1007.3 hPa | 1.78 mm | - | - | - |
| 1777971156 | 9.44° C | 85% | 1007.1 hPa | 2.29 mm | - | - | - |
| 1777970855 | 9.44° C | 85% | 1006.9 hPa | 2.79 mm | - | - | - |
| 1777970554 | 9.44° C | 86% | 1007.1 hPa | 3.56 mm | - | - | - |
| 1777970253 | 9.44° C | 89% | 1006.9 hPa | 3.81 mm | - | - | - |
| 1777969952 | 8.89° C | 91% | 1006.9 hPa | 4.57 mm | - | - | - |
| 1777969651 | 8.89° C | 93% | 1006.8 hPa | 5.08 mm | - | - | - |
| 1777969350 | 8.89° C | 95% | 1006.6 hPa | 5.33 mm | - | - | - |
| 1777969049 | 8.89° C | 95% | 1007 hPa | 5.33 mm | - | - | - |
| 1777968748 | 9.44° C | 94% | 1005.3 hPa | 5.33 mm | - | - | - |
| 1777968447 | 9.44° C | 90% | 1007.3 hPa | 4.57 mm | - | - | - |
| 1777968146 | 10° C | 86% | 1007.9 hPa | 4.32 mm | - | - | - |
| 1777967845 | 10° C | 85% | 1007.9 hPa | 4.06 mm | - | - | - |
| 1777967544 | 10° C | 85% | 1008 hPa | 3.56 mm | - | - | - |
* Rain latest hour (hover to see other rain measurements)
** Current wind speed in m/s (hover to see current wind gust speed)